sensor_id;sensor_type;location;lat;lon;timestamp;temperature;humidity
44886;DHT22;36669;51.428;21.162;2023-06-24T00:01:32;19.50;99.90
44886;DHT22;36669;51.428;21.162;2023-06-24T00:03:59;19.40;99.90
44886;DHT22;36669;51.428;21.162;2023-06-24T00:06:24;19.40;99.90
44886;DHT22;36669;51.428;21.162;2023-06-24T00:08:52;19.40;99.90
44886;DHT22;36669;51.428;21.162;2023-06-24T00:11:18;19.40;99.90
44886;DHT22;36669;51.428;21.162;2023-06-24T00:13:43;19.30;99.90
44886;DHT22;36669;51.428;21.162;2023-06-24T00:16:10;19.30;99.90
44886;DHT22;36669;51.428;21.162;2023-06-24T00:18:37;19.30;99.90
44886;DHT22;36669;51.428;21.162;2023-06-24T00:21:03;19.20;99.90
44886;DHT22;36669;51.428;21.162;2023-06-24T00:23:30;19.20;99.90
44886;DHT22;36669;51.428;21.162;2023-06-24T00:26:00;19.20;99.90
44886;DHT22;36669;51.428;21.162;2023-06-24T00:28:26;19.20;99.90
44886;DHT22;36669;51.428;21.162;2023-06-24T00:30:52;19.10;99.90
44886;DHT22;36669;51.428;21.162;2023-06-24T00:33:18;19.10;99.90
44886;DHT22;36669;51.428;21.162;2023-06-24T00:35:45;19.00;99.90
44886;DHT22;36669;51.428;21.162;2023-06-24T00:38:11;19.00;99.90
44886;DHT22;36669;51.428;21.162;2023-06-24T00:40:37;19.00;99.90
44886;DHT22;36669;51.428;21.162;2023-06-24T00:43:03;19.00;99.90
44886;DHT22;36669;51.428;21.162;2023-06-24T00:45:29;18.90;99.90
44886;DHT22;36669;51.428;21.162;2023-06-24T00:48:01;18.90;99.90
44886;DHT22;36669;51.428;21.162;2023-06-24T00:50:28;18.90;99.90
44886;DHT22;36669;51.428;21.162;2023-06-24T00:52:54;18.80;99.90
44886;DHT22;36669;51.428;21.162;2023-06-24T00:55:19;18.80;99.90
44886;DHT22;36669;51.428;21.162;2023-06-24T00:57:48;18.80;99.90
44886;DHT22;36669;51.428;21.162;2023-06-24T01:00:18;18.80;99.90
44886;DHT22;36669;51.428;21.162;2023-06-24T01:02:47;18.80;99.90
44886;DHT22;36669;51.428;21.162;2023-06-24T01:05:13;18.80;99.90
44886;DHT22;36669;51.428;21.162;2023-06-24T01:07:40;18.70;99.90
44886;DHT22;36669;51.428;21.162;2023-06-24T01:10:07;18.70;99.90
44886;DHT22;36669;51.428;21.162;2023-06-24T01:12:34;18.60;99.90
44886;DHT22;36669;51.428;21.162;2023-06-24T01:15:01;18.50;99.90
44886;DHT22;36669;51.428;21.162;2023-06-24T01:20:28;18.50;99.90
44886;DHT22;36669;51.428;21.162;2023-06-24T01:31:51;18.30;99.90
44886;DHT22;36669;51.428;21.162;2023-06-24T01:34:22;18.20;99.90
44886;DHT22;36669;51.428;21.162;2023-06-24T01:37:16;18.30;99.90
44886;DHT22;36669;51.428;21.162;2023-06-24T01:39:50;18.20;99.90
44886;DHT22;36669;51.428;21.162;2023-06-24T01:42:19;18.20;99.90
44886;DHT22;36669;51.428;21.162;2023-06-24T01:44:47;18.20;99.90
44886;DHT22;36669;51.428;21.162;2023-06-24T01:47:19;18.20;99.90
44886;DHT22;36669;51.428;21.162;2023-06-24T01:49:46;18.20;99.90
44886;DHT22;36669;51.428;21.162;2023-06-24T01:52:13;18.20;99.90
44886;DHT22;36669;51.428;21.162;2023-06-24T01:54:40;18.20;99.90
44886;DHT22;36669;51.428;21.162;2023-06-24T01:57:08;18.20;99.90
44886;DHT22;36669;51.428;21.162;2023-06-24T01:59:39;18.20;99.90
44886;DHT22;36669;51.428;21.162;2023-06-24T02:02:06;18.20;99.90
44886;DHT22;36669;51.428;21.162;2023-06-24T02:04:34;18.10;99.90
44886;DHT22;36669;51.428;21.162;2023-06-24T02:07:02;18.20;99.90
44886;DHT22;36669;51.428;21.162;2023-06-24T02:09:29;18.10;99.90
44886;DHT22;36669;51.428;21.162;2023-06-24T02:11:57;18.10;99.90
44886;DHT22;36669;51.428;21.162;2023-06-24T02:14:24;18.20;99.90
44886;DHT22;36669;51.428;21.162;2023-06-24T02:16:50;18.10;99.90
44886;DHT22;36669;51.428;21.162;2023-06-24T02:19:22;18.10;99.90
44886;DHT22;36669;51.428;21.162;2023-06-24T02:21:50;18.20;99.90
44886;DHT22;36669;51.428;21.162;2023-06-24T02:24:18;18.20;99.90
44886;DHT22;36669;51.428;21.162;2023-06-24T02:26:44;18.10;99.90
44886;DHT22;36669;51.428;21.162;2023-06-24T02:29:12;18.20;99.90
44886;DHT22;36669;51.428;21.162;2023-06-24T02:31:38;18.10;99.90
44886;DHT22;36669;51.428;21.162;2023-06-24T02:34:04;18.10;99.90
44886;DHT22;36669;51.428;21.162;2023-06-24T02:36:30;18.10;99.90
44886;DHT22;36669;51.428;21.162;2023-06-24T02:38:55;18.10;99.90
44886;DHT22;36669;51.428;21.162;2023-06-24T02:41:21;18.10;99.90
44886;DHT22;36669;51.428;21.162;2023-06-24T02:43:46;18.10;99.90
44886;DHT22;36669;51.428;21.162;2023-06-24T02:46:14;18.10;99.90
44886;DHT22;36669;51.428;21.162;2023-06-24T02:48:42;18.10;99.90
44886;DHT22;36669;51.428;21.162;2023-06-24T02:51:09;18.10;99.90
44886;DHT22;36669;51.428;21.162;2023-06-24T02:53:38;18.10;99.90
44886;DHT22;36669;51.428;21.162;2023-06-24T02:56:05;18.10;99.90
44886;DHT22;36669;51.428;21.162;2023-06-24T02:58:31;18.10;99.90
44886;DHT22;36669;51.428;21.162;2023-06-24T03:00:59;18.10;99.90
44886;DHT22;36669;51.428;21.162;2023-06-24T03:03:26;18.10;99.90
44886;DHT22;36669;51.428;21.162;2023-06-24T03:05:53;18.00;99.90
44886;DHT22;36669;51.428;21.162;2023-06-24T03:08:19;18.00;99.90
44886;DHT22;36669;51.428;21.162;2023-06-24T03:10:45;18.00;99.90
44886;DHT22;36669;51.428;21.162;2023-06-24T03:13:10;18.00;99.90
44886;DHT22;36669;51.428;21.162;2023-06-24T03:15:36;17.90;99.90
44886;DHT22;36669;51.428;21.162;2023-06-24T03:18:02;17.90;99.90
44886;DHT22;36669;51.428;21.162;2023-06-24T03:20:27;17.90;99.90
44886;DHT22;36669;51.428;21.162;2023-06-24T03:22:53;17.90;99.90
44886;DHT22;36669;51.428;21.162;2023-06-24T03:25:19;17.90;99.90
44886;DHT22;36669;51.428;21.162;2023-06-24T03:27:45;17.90;99.90
44886;DHT22;36669;51.428;21.162;2023-06-24T03:30:11;17.90;99.90
44886;DHT22;36669;51.428;21.162;2023-06-24T03:32:40;17.90;99.90
44886;DHT22;36669;51.428;21.162;2023-06-24T03:35:05;17.90;99.90
44886;DHT22;36669;51.428;21.162;2023-06-24T03:37:32;17.90;99.90
44886;DHT22;36669;51.428;21.162;2023-06-24T03:39:58;17.90;99.90
44886;DHT22;36669;51.428;21.162;2023-06-24T03:42:23;17.90;99.90
44886;DHT22;36669;51.428;21.162;2023-06-24T03:44:49;17.90;99.90
44886;DHT22;36669;51.428;21.162;2023-06-24T03:47:14;17.90;99.90
44886;DHT22;36669;51.428;21.162;2023-06-24T03:49:41;17.90;99.90
44886;DHT22;36669;51.428;21.162;2023-06-24T03:52:06;17.90;99.90
44886;DHT22;36669;51.428;21.162;2023-06-24T03:54:34;17.90;99.90
44886;DHT22;36669;51.428;21.162;2023-06-24T03:56:59;17.90;99.90
44886;DHT22;36669;51.428;21.162;2023-06-24T03:59:25;18.00;99.90
44886;DHT22;36669;51.428;21.162;2023-06-24T04:01:51;18.00;99.90
44886;DHT22;36669;51.428;21.162;2023-06-24T04:04:16;18.00;99.90
44886;DHT22;36669;51.428;21.162;2023-06-24T04:06:42;18.00;99.90
44886;DHT22;36669;51.428;21.162;2023-06-24T04:09:08;18.00;99.90
44886;DHT22;36669;51.428;21.162;2023-06-24T04:11:35;18.00;99.90
44886;DHT22;36669;51.428;21.162;2023-06-24T04:14:01;18.10;99.90
44886;DHT22;36669;51.428;21.162;2023-06-24T04:16:27;18.10;99.90
44886;DHT22;36669;51.428;21.162;2023-06-24T04:18:53;18.10;99.90
44886;DHT22;36669;51.428;21.162;2023-06-24T04:21:18;18.20;99.90
44886;DHT22;36669;51.428;21.162;2023-06-24T04:23:44;18.20;99.90
44886;DHT22;36669;51.428;21.162;2023-06-24T04:26:10;18.20;99.90
44886;DHT22;36669;51.428;21.162;2023-06-24T04:28:35;18.20;99.90
44886;DHT22;36669;51.428;21.162;2023-06-24T04:31:01;18.30;99.90
44886;DHT22;36669;51.428;21.162;2023-06-24T04:33:27;18.30;99.90
44886;DHT22;36669;51.428;21.162;2023-06-24T04:35:52;18.40;99.90
44886;DHT22;36669;51.428;21.162;2023-06-24T04:38:18;18.40;99.90
44886;DHT22;36669;51.428;21.162;2023-06-24T04:40:44;18.50;99.90
44886;DHT22;36669;51.428;21.162;2023-06-24T04:43:10;18.50;99.90
44886;DHT22;36669;51.428;21.162;2023-06-24T04:45:36;18.50;99.90
44886;DHT22;36669;51.428;21.162;2023-06-24T04:48:01;18.50;99.90
44886;DHT22;36669;51.428;21.162;2023-06-24T04:50:27;18.60;99.90
44886;DHT22;36669;51.428;21.162;2023-06-24T04:52:53;18.60;99.90
44886;DHT22;36669;51.428;21.162;2023-06-24T04:55:27;18.70;99.90
44886;DHT22;36669;51.428;21.162;2023-06-24T04:57:55;18.70;99.90
44886;DHT22;36669;51.428;21.162;2023-06-24T05:00:21;18.80;99.90
44886;DHT22;36669;51.428;21.162;2023-06-24T05:02:48;18.90;99.90
44886;DHT22;36669;51.428;21.162;2023-06-24T05:05:14;18.80;99.90
44886;DHT22;36669;51.428;21.162;2023-06-24T05:07:39;18.90;99.90
44886;DHT22;36669;51.428;21.162;2023-06-24T05:10:05;18.90;99.90
44886;DHT22;36669;51.428;21.162;2023-06-24T05:12:31;18.90;99.90
44886;DHT22;36669;51.428;21.162;2023-06-24T05:14:57;19.00;99.90
44886;DHT22;36669;51.428;21.162;2023-06-24T05:17:23;19.10;99.90
44886;DHT22;36669;51.428;21.162;2023-06-24T05:19:49;19.30;99.90
44886;DHT22;36669;51.428;21.162;2023-06-24T05:22:14;19.40;99.90
44886;DHT22;36669;51.428;21.162;2023-06-24T05:24:40;19.50;99.90
44886;DHT22;36669;51.428;21.162;2023-06-24T05:27:07;19.50;99.90
44886;DHT22;36669;51.428;21.162;2023-06-24T05:29:33;19.70;99.90
44886;DHT22;36669;51.428;21.162;2023-06-24T05:31:59;19.80;99.90
44886;DHT22;36669;51.428;21.162;2023-06-24T05:34:27;19.80;99.90
44886;DHT22;36669;51.428;21.162;2023-06-24T05:36:52;19.80;99.90
44886;DHT22;36669;51.428;21.162;2023-06-24T05:39:19;19.80;99.90
44886;DHT22;36669;51.428;21.162;2023-06-24T05:41:45;19.90;99.90
44886;DHT22;36669;51.428;21.162;2023-06-24T05:44:10;19.90;99.90
44886;DHT22;36669;51.428;21.162;2023-06-24T05:46:36;19.90;99.90
44886;DHT22;36669;51.428;21.162;2023-06-24T05:49:02;20.00;99.90
44886;DHT22;36669;51.428;21.162;2023-06-24T05:51:28;20.00;99.90
44886;DHT22;36669;51.428;21.162;2023-06-24T05:53:54;20.10;99.90
44886;DHT22;36669;51.428;21.162;2023-06-24T05:56:20;20.10;99.90
44886;DHT22;36669;51.428;21.162;2023-06-24T05:58:46;20.20;99.90
44886;DHT22;36669;51.428;21.162;2023-06-24T06:01:12;20.30;99.90
44886;DHT22;36669;51.428;21.162;2023-06-24T06:03:38;20.40;99.90
44886;DHT22;36669;51.428;21.162;2023-06-24T06:06:03;20.50;99.90
44886;DHT22;36669;51.428;21.162;2023-06-24T06:08:29;20.50;99.90
44886;DHT22;36669;51.428;21.162;2023-06-24T06:10:55;20.60;99.90
44886;DHT22;36669;51.428;21.162;2023-06-24T06:13:21;20.70;99.90
44886;DHT22;36669;51.428;21.162;2023-06-24T06:15:46;20.90;99.90
44886;DHT22;36669;51.428;21.162;2023-06-24T06:18:12;20.80;99.90
44886;DHT22;36669;51.428;21.162;2023-06-24T06:20:37;21.00;99.90
44886;DHT22;36669;51.428;21.162;2023-06-24T06:23:03;21.10;99.90
44886;DHT22;36669;51.428;21.162;2023-06-24T06:25:29;21.30;99.90
44886;DHT22;36669;51.428;21.162;2023-06-24T06:27:54;21.40;99.90
44886;DHT22;36669;51.428;21.162;2023-06-24T06:30:20;21.40;99.90
44886;DHT22;36669;51.428;21.162;2023-06-24T06:32:46;21.30;99.90
44886;DHT22;36669;51.428;21.162;2023-06-24T06:35:11;21.40;99.90
44886;DHT22;36669;51.428;21.162;2023-06-24T06:37:37;21.40;99.90
44886;DHT22;36669;51.428;21.162;2023-06-24T06:40:03;21.40;99.90
44886;DHT22;36669;51.428;21.162;2023-06-24T06:42:29;21.50;99.90
44886;DHT22;36669;51.428;21.162;2023-06-24T06:44:55;21.50;99.90
44886;DHT22;36669;51.428;21.162;2023-06-24T06:47:21;21.30;99.90
44886;DHT22;36669;51.428;21.162;2023-06-24T06:49:46;21.20;99.90
44886;DHT22;36669;51.428;21.162;2023-06-24T06:52:12;21.20;99.90
44886;DHT22;36669;51.428;21.162;2023-06-24T06:54:37;21.10;99.90
44886;DHT22;36669;51.428;21.162;2023-06-24T06:57:04;20.90;99.90
44886;DHT22;36669;51.428;21.162;2023-06-24T06:59:33;20.80;99.90
44886;DHT22;36669;51.428;21.162;2023-06-24T07:01:59;20.90;99.90
44886;DHT22;36669;51.428;21.162;2023-06-24T07:04:24;21.10;99.90
44886;DHT22;36669;51.428;21.162;2023-06-24T07:06:50;21.10;99.90
44886;DHT22;36669;51.428;21.162;2023-06-24T07:09:16;21.30;99.90
44886;DHT22;36669;51.428;21.162;2023-06-24T07:11:42;21.30;99.90
44886;DHT22;36669;51.428;21.162;2023-06-24T07:14:08;21.30;99.90
44886;DHT22;36669;51.428;21.162;2023-06-24T07:16:34;21.40;99.90
44886;DHT22;36669;51.428;21.162;2023-06-24T07:19:00;21.50;99.90
44886;DHT22;36669;51.428;21.162;2023-06-24T07:21:25;21.60;99.90
44886;DHT22;36669;51.428;21.162;2023-06-24T07:23:51;21.60;99.90
44886;DHT22;36669;51.428;21.162;2023-06-24T07:26:16;21.70;99.90
44886;DHT22;36669;51.428;21.162;2023-06-24T07:28:42;21.60;99.90
44886;DHT22;36669;51.428;21.162;2023-06-24T07:31:08;21.60;99.90
44886;DHT22;36669;51.428;21.162;2023-06-24T07:33:33;21.70;99.90
44886;DHT22;36669;51.428;21.162;2023-06-24T07:36:00;21.70;99.90
44886;DHT22;36669;51.428;21.162;2023-06-24T07:38:27;21.80;99.90
44886;DHT22;36669;51.428;21.162;2023-06-24T07:40:53;21.90;99.90
44886;DHT22;36669;51.428;21.162;2023-06-24T07:43:19;22.00;99.90
44886;DHT22;36669;51.428;21.162;2023-06-24T07:45:44;22.10;99.90
44886;DHT22;36669;51.428;21.162;2023-06-24T07:48:10;22.10;99.90
44886;DHT22;36669;51.428;21.162;2023-06-24T07:50:35;22.20;99.90
44886;DHT22;36669;51.428;21.162;2023-06-24T07:53:02;22.30;99.90
44886;DHT22;36669;51.428;21.162;2023-06-24T07:55:28;22.40;99.90
44886;DHT22;36669;51.428;21.162;2023-06-24T07:57:53;22.50;99.90
44886;DHT22;36669;51.428;21.162;2023-06-24T08:00:19;22.60;99.90
44886;DHT22;36669;51.428;21.162;2023-06-24T08:02:45;22.70;99.90
44886;DHT22;36669;51.428;21.162;2023-06-24T08:05:10;22.80;99.90
44886;DHT22;36669;51.428;21.162;2023-06-24T08:07:37;22.80;99.90
44886;DHT22;36669;51.428;21.162;2023-06-24T08:10:03;22.80;99.90
44886;DHT22;36669;51.428;21.162;2023-06-24T08:12:29;22.90;99.90
44886;DHT22;36669;51.428;21.162;2023-06-24T08:14:55;23.00;99.90
44886;DHT22;36669;51.428;21.162;2023-06-24T08:17:20;23.10;99.90
44886;DHT22;36669;51.428;21.162;2023-06-24T08:19:46;23.00;99.90
44886;DHT22;36669;51.428;21.162;2023-06-24T08:22:11;23.10;99.90
44886;DHT22;36669;51.428;21.162;2023-06-24T08:24:37;23.10;99.90
44886;DHT22;36669;51.428;21.162;2023-06-24T08:27:03;23.20;99.90
44886;DHT22;36669;51.428;21.162;2023-06-24T08:29:29;23.30;99.90
44886;DHT22;36669;51.428;21.162;2023-06-24T08:31:54;23.30;99.90
44886;DHT22;36669;51.428;21.162;2023-06-24T08:34:20;23.40;99.90
44886;DHT22;36669;51.428;21.162;2023-06-24T08:36:45;23.50;99.90
44886;DHT22;36669;51.428;21.162;2023-06-24T08:39:11;23.60;99.90
44886;DHT22;36669;51.428;21.162;2023-06-24T08:41:37;23.80;99.90
44886;DHT22;36669;51.428;21.162;2023-06-24T08:44:02;23.90;99.90
44886;DHT22;36669;51.428;21.162;2023-06-24T08:46:29;24.10;99.90
44886;DHT22;36669;51.428;21.162;2023-06-24T08:51:38;24.30;99.90
44886;DHT22;36669;51.428;21.162;2023-06-24T08:54:07;24.40;99.90
44886;DHT22;36669;51.428;21.162;2023-06-24T08:56:35;24.40;99.90
44886;DHT22;36669;51.428;21.162;2023-06-24T08:59:05;24.60;99.90
44886;DHT22;36669;51.428;21.162;2023-06-24T09:01:30;24.60;99.90
44886;DHT22;36669;51.428;21.162;2023-06-24T09:03:56;24.60;99.90
44886;DHT22;36669;51.428;21.162;2023-06-24T09:06:22;24.60;99.90
44886;DHT22;36669;51.428;21.162;2023-06-24T09:08:57;24.60;99.90
44886;DHT22;36669;51.428;21.162;2023-06-24T09:11:28;24.70;99.90
44886;DHT22;36669;51.428;21.162;2023-06-24T09:13:58;24.90;99.90
44886;DHT22;36669;51.428;21.162;2023-06-24T09:16:25;25.00;99.90
44886;DHT22;36669;51.428;21.162;2023-06-24T09:18:52;25.10;99.90
44886;DHT22;36669;51.428;21.162;2023-06-24T09:21:27;25.20;99.90
44886;DHT22;36669;51.428;21.162;2023-06-24T09:23:56;25.50;99.90
44886;DHT22;36669;51.428;21.162;2023-06-24T09:26:26;25.50;99.90
44886;DHT22;36669;51.428;21.162;2023-06-24T09:28:53;25.60;99.90
44886;DHT22;36669;51.428;21.162;2023-06-24T09:31:20;25.70;99.90
44886;DHT22;36669;51.428;21.162;2023-06-24T09:33:46;25.60;99.90
44886;DHT22;36669;51.428;21.162;2023-06-24T09:36:13;25.60;99.90
44886;DHT22;36669;51.428;21.162;2023-06-24T09:38:43;25.10;99.90
44886;DHT22;36669;51.428;21.162;2023-06-24T09:41:10;24.70;99.90
44886;DHT22;36669;51.428;21.162;2023-06-24T09:43:36;24.70;99.90
44886;DHT22;36669;51.428;21.162;2023-06-24T09:46:06;24.90;99.90
44886;DHT22;36669;51.428;21.162;2023-06-24T09:48:35;25.20;99.90
44886;DHT22;36669;51.428;21.162;2023-06-24T09:51:03;25.30;99.90
44886;DHT22;36669;51.428;21.162;2023-06-24T09:53:33;25.50;99.90
44886;DHT22;36669;51.428;21.162;2023-06-24T09:56:01;25.10;99.90
44886;DHT22;36669;51.428;21.162;2023-06-24T09:58:34;24.30;99.90
44886;DHT22;36669;51.428;21.162;2023-06-24T10:01:05;24.10;99.90
44886;DHT22;36669;51.428;21.162;2023-06-24T10:03:33;23.60;99.90
44886;DHT22;36669;51.428;21.162;2023-06-24T10:06:00;23.80;99.90
44886;DHT22;36669;51.428;21.162;2023-06-24T10:08:27;23.90;99.90
44886;DHT22;36669;51.428;21.162;2023-06-24T10:10:53;24.00;99.90
44886;DHT22;36669;51.428;21.162;2023-06-24T10:13:18;23.80;99.90
44886;DHT22;36669;51.428;21.162;2023-06-24T10:15:44;23.60;99.90
44886;DHT22;36669;51.428;21.162;2023-06-24T10:20:56;23.50;99.90
44886;DHT22;36669;51.428;21.162;2023-06-24T10:23:22;23.40;99.90
44886;DHT22;36669;51.428;21.162;2023-06-24T10:25:48;23.40;99.90
44886;DHT22;36669;51.428;21.162;2023-06-24T10:28:14;23.50;99.90
44886;DHT22;36669;51.428;21.162;2023-06-24T10:30:39;23.60;99.90
44886;DHT22;36669;51.428;21.162;2023-06-24T10:33:09;23.50;99.90
44886;DHT22;36669;51.428;21.162;2023-06-24T10:35:41;23.40;99.90
44886;DHT22;36669;51.428;21.162;2023-06-24T10:38:10;23.30;99.90
44886;DHT22;36669;51.428;21.162;2023-06-24T10:40:41;22.90;99.90
44886;DHT22;36669;51.428;21.162;2023-06-24T10:43:26;22.60;99.90
44886;DHT22;36669;51.428;21.162;2023-06-24T10:45:53;22.50;99.90
44886;DHT22;36669;51.428;21.162;2023-06-24T10:48:19;22.50;99.90
44886;DHT22;36669;51.428;21.162;2023-06-24T10:50:48;22.50;99.90
44886;DHT22;36669;51.428;21.162;2023-06-24T10:53:15;22.50;99.90
44886;DHT22;36669;51.428;21.162;2023-06-24T10:55:41;22.50;99.90
44886;DHT22;36669;51.428;21.162;2023-06-24T10:58:09;22.50;99.90
44886;DHT22;36669;51.428;21.162;2023-06-24T11:00:36;22.40;99.90
44886;DHT22;36669;51.428;21.162;2023-06-24T11:03:15;22.50;99.90
44886;DHT22;36669;51.428;21.162;2023-06-24T11:05:43;22.40;99.90
44886;DHT22;36669;51.428;21.162;2023-06-24T11:08:09;22.40;99.90
44886;DHT22;36669;51.428;21.162;2023-06-24T11:10:46;22.40;99.90
44886;DHT22;36669;51.428;21.162;2023-06-24T11:13:12;22.50;99.90
44886;DHT22;36669;51.428;21.162;2023-06-24T11:15:39;22.60;99.90
44886;DHT22;36669;51.428;21.162;2023-06-24T11:18:08;22.60;99.90
44886;DHT22;36669;51.428;21.162;2023-06-24T11:20:38;22.60;99.90
44886;DHT22;36669;51.428;21.162;2023-06-24T11:23:08;22.30;99.90
44886;DHT22;36669;51.428;21.162;2023-06-24T11:25:40;22.30;99.90
44886;DHT22;36669;51.428;21.162;2023-06-24T11:28:13;22.40;99.90
44886;DHT22;36669;51.428;21.162;2023-06-24T11:30:38;22.40;99.90
44886;DHT22;36669;51.428;21.162;2023-06-24T11:33:04;22.40;99.90
44886;DHT22;36669;51.428;21.162;2023-06-24T11:35:29;22.20;99.90
44886;DHT22;36669;51.428;21.162;2023-06-24T11:38:00;22.10;99.90
44886;DHT22;36669;51.428;21.162;2023-06-24T11:40:26;22.00;99.90
44886;DHT22;36669;51.428;21.162;2023-06-24T11:42:51;22.00;99.90
44886;DHT22;36669;51.428;21.162;2023-06-24T11:45:20;21.80;99.90
44886;DHT22;36669;51.428;21.162;2023-06-24T11:47:46;21.80;99.90
44886;DHT22;36669;51.428;21.162;2023-06-24T11:50:13;21.80;99.90
44886;DHT22;36669;51.428;21.162;2023-06-24T11:55:21;21.70;99.90
44886;DHT22;36669;51.428;21.162;2023-06-24T11:57:48;21.60;99.90
44886;DHT22;36669;51.428;21.162;2023-06-24T12:00:14;21.80;99.90
44886;DHT22;36669;51.428;21.162;2023-06-24T12:02:40;21.80;99.90
44886;DHT22;36669;51.428;21.162;2023-06-24T12:05:07;21.90;99.90
44886;DHT22;36669;51.428;21.162;2023-06-24T12:07:33;22.00;99.90
44886;DHT22;36669;51.428;21.162;2023-06-24T12:09:59;22.10;99.90
44886;DHT22;36669;51.428;21.162;2023-06-24T12:12:25;22.20;99.90
44886;DHT22;36669;51.428;21.162;2023-06-24T12:14:50;22.30;99.90
44886;DHT22;36669;51.428;21.162;2023-06-24T12:17:16;22.30;99.90
44886;DHT22;36669;51.428;21.162;2023-06-24T12:19:41;22.20;99.90
44886;DHT22;36669;51.428;21.162;2023-06-24T12:22:07;22.20;99.90
44886;DHT22;36669;51.428;21.162;2023-06-24T12:24:33;22.20;99.90
44886;DHT22;36669;51.428;21.162;2023-06-24T12:26:58;22.20;99.90
44886;DHT22;36669;51.428;21.162;2023-06-24T12:29:24;22.10;99.90
44886;DHT22;36669;51.428;21.162;2023-06-24T12:31:50;22.00;99.90
44886;DHT22;36669;51.428;21.162;2023-06-24T12:34:15;21.90;99.90
44886;DHT22;36669;51.428;21.162;2023-06-24T12:36:41;21.80;99.90
44886;DHT22;36669;51.428;21.162;2023-06-24T12:39:06;21.80;99.90
44886;DHT22;36669;51.428;21.162;2023-06-24T12:41:32;21.80;99.90
44886;DHT22;36669;51.428;21.162;2023-06-24T12:43:58;21.60;99.90
44886;DHT22;36669;51.428;21.162;2023-06-24T12:46:24;21.60;99.90
44886;DHT22;36669;51.428;21.162;2023-06-24T12:48:50;21.70;99.90
44886;DHT22;36669;51.428;21.162;2023-06-24T12:51:15;21.80;99.90
44886;DHT22;36669;51.428;21.162;2023-06-24T12:53:41;21.90;99.90
44886;DHT22;36669;51.428;21.162;2023-06-24T12:56:06;22.00;99.90
44886;DHT22;36669;51.428;21.162;2023-06-24T12:58:34;22.00;99.90
44886;DHT22;36669;51.428;21.162;2023-06-24T13:00:59;22.30;99.90
44886;DHT22;36669;51.428;21.162;2023-06-24T13:03:25;22.40;99.90
44886;DHT22;36669;51.428;21.162;2023-06-24T13:05:51;22.30;99.90
44886;DHT22;36669;51.428;21.162;2023-06-24T13:08:16;22.30;99.90
44886;DHT22;36669;51.428;21.162;2023-06-24T13:10:42;22.00;99.90
44886;DHT22;36669;51.428;21.162;2023-06-24T13:13:07;21.90;99.90
44886;DHT22;36669;51.428;21.162;2023-06-24T13:15:33;21.80;99.90
44886;DHT22;36669;51.428;21.162;2023-06-24T13:17:59;21.80;99.90
44886;DHT22;36669;51.428;21.162;2023-06-24T13:20:25;21.80;99.90
44886;DHT22;36669;51.428;21.162;2023-06-24T13:22:50;21.80;99.90
44886;DHT22;36669;51.428;21.162;2023-06-24T13:25:16;21.80;99.90
44886;DHT22;36669;51.428;21.162;2023-06-24T13:27:42;21.80;99.90
44886;DHT22;36669;51.428;21.162;2023-06-24T13:30:08;21.80;99.90
44886;DHT22;36669;51.428;21.162;2023-06-24T13:32:34;21.70;99.90
44886;DHT22;36669;51.428;21.162;2023-06-24T13:34:59;21.70;99.90
44886;DHT22;36669;51.428;21.162;2023-06-24T13:37:25;21.70;99.90
44886;DHT22;36669;51.428;21.162;2023-06-24T13:39:50;21.70;99.90
44886;DHT22;36669;51.428;21.162;2023-06-24T13:42:16;21.70;99.90
44886;DHT22;36669;51.428;21.162;2023-06-24T13:44:42;21.70;99.90
44886;DHT22;36669;51.428;21.162;2023-06-24T13:47:07;21.70;99.90
44886;DHT22;36669;51.428;21.162;2023-06-24T13:49:33;21.70;99.90
44886;DHT22;36669;51.428;21.162;2023-06-24T13:51:58;21.80;99.90
44886;DHT22;36669;51.428;21.162;2023-06-24T13:54:24;21.80;99.90
44886;DHT22;36669;51.428;21.162;2023-06-24T13:56:50;22.00;99.90
44886;DHT22;36669;51.428;21.162;2023-06-24T13:59:15;22.10;99.90
44886;DHT22;36669;51.428;21.162;2023-06-24T14:01:41;22.20;99.90
44886;DHT22;36669;51.428;21.162;2023-06-24T14:04:07;22.30;99.90
44886;DHT22;36669;51.428;21.162;2023-06-24T14:06:32;22.40;99.90
44886;DHT22;36669;51.428;21.162;2023-06-24T14:08:58;22.50;99.90
44886;DHT22;36669;51.428;21.162;2023-06-24T14:11:24;22.30;99.90
44886;DHT22;36669;51.428;21.162;2023-06-24T14:13:49;22.30;99.90
44886;DHT22;36669;51.428;21.162;2023-06-24T14:16:16;22.30;99.90
44886;DHT22;36669;51.428;21.162;2023-06-24T14:18:42;22.10;99.90
44886;DHT22;36669;51.428;21.162;2023-06-24T14:21:08;22.00;99.90
44886;DHT22;36669;51.428;21.162;2023-06-24T14:23:34;22.10;99.90
44886;DHT22;36669;51.428;21.162;2023-06-24T14:26:01;22.40;99.90
44886;DHT22;36669;51.428;21.162;2023-06-24T14:28:27;22.30;99.90
44886;DHT22;36669;51.428;21.162;2023-06-24T14:30:53;22.20;99.90
44886;DHT22;36669;51.428;21.162;2023-06-24T14:33:20;22.10;99.90
44886;DHT22;36669;51.428;21.162;2023-06-24T14:35:46;22.20;99.90
44886;DHT22;36669;51.428;21.162;2023-06-24T14:38:11;22.40;99.90
44886;DHT22;36669;51.428;21.162;2023-06-24T14:40:37;22.50;99.90
44886;DHT22;36669;51.428;21.162;2023-06-24T14:43:03;22.50;99.90
44886;DHT22;36669;51.428;21.162;2023-06-24T14:45:28;22.60;99.90
44886;DHT22;36669;51.428;21.162;2023-06-24T14:47:54;22.50;99.90
44886;DHT22;36669;51.428;21.162;2023-06-24T14:50:20;22.30;99.90
44886;DHT22;36669;51.428;21.162;2023-06-24T14:52:45;22.20;99.90
44886;DHT22;36669;51.428;21.162;2023-06-24T14:55:11;22.20;99.90
44886;DHT22;36669;51.428;21.162;2023-06-24T14:57:37;22.20;99.90
44886;DHT22;36669;51.428;21.162;2023-06-24T15:00:05;22.30;99.90
44886;DHT22;36669;51.428;21.162;2023-06-24T15:02:31;22.30;99.90
44886;DHT22;36669;51.428;21.162;2023-06-24T15:04:57;22.40;99.90
44886;DHT22;36669;51.428;21.162;2023-06-24T15:07:22;22.20;99.90
44886;DHT22;36669;51.428;21.162;2023-06-24T15:09:48;22.00;99.90
44886;DHT22;36669;51.428;21.162;2023-06-24T15:12:13;22.00;99.90
44886;DHT22;36669;51.428;21.162;2023-06-24T15:14:39;21.90;99.90
44886;DHT22;36669;51.428;21.162;2023-06-24T15:17:05;21.80;99.90
44886;DHT22;36669;51.428;21.162;2023-06-24T15:19:30;21.90;99.90
44886;DHT22;36669;51.428;21.162;2023-06-24T15:21:56;21.80;99.90
44886;DHT22;36669;51.428;21.162;2023-06-24T15:24:22;21.70;99.90
44886;DHT22;36669;51.428;21.162;2023-06-24T15:26:47;21.60;99.90
44886;DHT22;36669;51.428;21.162;2023-06-24T15:29:13;21.40;99.90
44886;DHT22;36669;51.428;21.162;2023-06-24T15:31:38;21.10;99.90